sensor_id;sensor_type;location;lat;lon;timestamp;pressure;altitude;pressure_sealevel;temperature;humidity
68456;BME280;55437;55.046;38.838;2023-06-26T00:00:20;99837.22;;;14.41;70.79
68456;BME280;55437;55.046;38.838;2023-06-26T00:02:46;99840.63;;;14.42;70.73
68456;BME280;55437;55.046;38.838;2023-06-26T00:05:12;99828.69;;;14.39;70.88
68456;BME280;55437;55.046;38.838;2023-06-26T00:07:39;99831.28;;;14.39;71.00
68456;BME280;55437;55.046;38.838;2023-06-26T00:10:06;99829.53;;;14.40;71.09
68456;BME280;55437;55.046;38.838;2023-06-26T00:12:32;99826.88;;;14.41;71.00
68456;BME280;55437;55.046;38.838;2023-06-26T00:15:00;99833.91;;;14.38;71.03
68456;BME280;55437;55.046;38.838;2023-06-26T00:17:26;99821.81;;;14.38;71.10
68456;BME280;55437;55.046;38.838;2023-06-26T00:19:52;99822.91;;;14.34;71.51
68456;BME280;55437;55.046;38.838;2023-06-26T00:22:18;99822.91;;;14.34;71.60
68456;BME280;55437;55.046;38.838;2023-06-26T00:24:46;99830.56;;;14.36;71.73
68456;BME280;55437;55.046;38.838;2023-06-26T00:27:11;99825.31;;;14.37;71.55
68456;BME280;55437;55.046;38.838;2023-06-26T00:29:38;99825.31;;;14.37;71.50
68456;BME280;55437;55.046;38.838;2023-06-26T00:32:06;99826.16;;;14.38;71.33
68456;BME280;55437;55.046;38.838;2023-06-26T00:34:34;99823.66;;;14.36;71.48
68456;BME280;55437;55.046;38.838;2023-06-26T00:37:00;99820.25;;;14.36;71.30
68456;BME280;55437;55.046;38.838;2023-06-26T00:39:26;99816.81;;;14.35;71.17
68456;BME280;55437;55.046;38.838;2023-06-26T00:41:53;99816.00;;;14.35;71.13
68456;BME280;55437;55.046;38.838;2023-06-26T00:44:22;99808.25;;;14.35;71.29
68456;BME280;55437;55.046;38.838;2023-06-26T00:46:48;99816.13;;;14.32;71.02
68456;BME280;55437;55.046;38.838;2023-06-26T00:49:15;99816.25;;;14.29;71.05
68456;BME280;55437;55.046;38.838;2023-06-26T00:51:41;99818.91;;;14.27;71.14
68456;BME280;55437;55.046;38.838;2023-06-26T00:54:08;99824.78;;;14.31;71.04
68456;BME280;55437;55.046;38.838;2023-06-26T00:56:35;99820.88;;;14.41;70.93
68456;BME280;55437;55.046;38.838;2023-06-26T00:59:03;99816.78;;;14.54;70.69
68456;BME280;55437;55.046;38.838;2023-06-26T01:01:31;99819.47;;;14.70;70.16
68456;BME280;55437;55.046;38.838;2023-06-26T01:03:56;99814.28;;;14.87;69.83
68456;BME280;55437;55.046;38.838;2023-06-26T01:06:25;99821.06;;;15.07;69.33
68456;BME280;55437;55.046;38.838;2023-06-26T01:08:54;99813.34;;;15.23;68.92
68456;BME280;55437;55.046;38.838;2023-06-26T01:11:20;99816.22;;;15.34;68.27
68456;BME280;55437;55.046;38.838;2023-06-26T01:13:46;99816.94;;;15.53;67.83
68456;BME280;55437;55.046;38.838;2023-06-26T01:16:12;99815.50;;;15.65;67.59
68456;BME280;55437;55.046;38.838;2023-06-26T01:18:58;99810.84;;;15.87;66.78
68456;BME280;55437;55.046;38.838;2023-06-26T01:21:26;99806.47;;;16.19;65.86
68456;BME280;55437;55.046;38.838;2023-06-26T01:26:30;99806.97;;;16.26;65.37
68456;BME280;55437;55.046;38.838;2023-06-26T01:29:02;99816.88;;;16.03;65.88
68456;BME280;55437;55.046;38.838;2023-06-26T01:31:29;99817.09;;;15.83;66.19
68456;BME280;55437;55.046;38.838;2023-06-26T01:33:57;99823.19;;;15.66;66.47
68456;BME280;55437;55.046;38.838;2023-06-26T01:36:25;99816.19;;;15.51;66.59
68456;BME280;55437;55.046;38.838;2023-06-26T01:38:52;99814.31;;;15.37;66.97
68456;BME280;55437;55.046;38.838;2023-06-26T01:41:18;99814.09;;;15.25;67.14
68456;BME280;55437;55.046;38.838;2023-06-26T01:46:39;99816.56;;;15.10;67.84
68456;BME280;55437;55.046;38.838;2023-06-26T01:50:05;99816.03;;;15.04;67.84
68456;BME280;55437;55.046;38.838;2023-06-26T01:52:43;99824.09;;;14.98;67.80
68456;BME280;55437;55.046;38.838;2023-06-26T01:57:52;99817.66;;;14.89;68.08
68456;BME280;55437;55.046;38.838;2023-06-26T02:00:20;99825.66;;;14.85;68.22
68456;BME280;55437;55.046;38.838;2023-06-26T02:02:47;99826.47;;;14.85;68.33
68456;BME280;55437;55.046;38.838;2023-06-26T02:05:13;99821.97;;;14.89;68.25
68456;BME280;55437;55.046;38.838;2023-06-26T02:07:40;99825.41;;;15.06;68.01
68456;BME280;55437;55.046;38.838;2023-06-26T02:10:06;99823.47;;;15.27;67.60
68456;BME280;55437;55.046;38.838;2023-06-26T02:12:34;99824.84;;;15.50;67.29
68456;BME280;55437;55.046;38.838;2023-06-26T02:15:03;99821.38;;;16.00;66.39
68456;BME280;55437;55.046;38.838;2023-06-26T02:17:32;99816.91;;;16.79;64.54
68456;BME280;55437;55.046;38.838;2023-06-26T02:19:58;99819.41;;;17.53;63.25
68456;BME280;55437;55.046;38.838;2023-06-26T02:22:24;99821.31;;;18.20;61.21
68456;BME280;55437;55.046;38.838;2023-06-26T02:24:50;99815.75;;;18.66;60.10
68456;BME280;55437;55.046;38.838;2023-06-26T02:27:15;99810.09;;;18.99;59.56
68456;BME280;55437;55.046;38.838;2023-06-26T02:29:42;99816.44;;;19.58;57.71
68456;BME280;55437;55.046;38.838;2023-06-26T02:32:08;99809.81;;;20.27;56.34
68456;BME280;55437;55.046;38.838;2023-06-26T02:34:35;99810.47;;;21.01;54.29
68456;BME280;55437;55.046;38.838;2023-06-26T02:37:01;99815.41;;;21.61;52.48
68456;BME280;55437;55.046;38.838;2023-06-26T02:39:27;99805.31;;;22.22;50.84
68456;BME280;55437;55.046;38.838;2023-06-26T02:41:54;99810.78;;;22.94;48.88
68456;BME280;55437;55.046;38.838;2023-06-26T02:44:22;99814.03;;;22.75;48.81
68456;BME280;55437;55.046;38.838;2023-06-26T02:46:48;99807.31;;;22.41;49.22
68456;BME280;55437;55.046;38.838;2023-06-26T02:49:14;99808.63;;;22.67;48.19
68456;BME280;55437;55.046;38.838;2023-06-26T02:51:40;99814.13;;;23.26;46.91
68456;BME280;55437;55.046;38.838;2023-06-26T02:54:13;99817.91;;;23.43;46.13
68456;BME280;55437;55.046;38.838;2023-06-26T02:56:41;99821.94;;;23.47;46.15
68456;BME280;55437;55.046;38.838;2023-06-26T02:59:08;99823.13;;;23.54;45.92
68456;BME280;55437;55.046;38.838;2023-06-26T03:01:34;99813.06;;;23.59;45.81
68456;BME280;55437;55.046;38.838;2023-06-26T03:04:01;99813.88;;;24.00;44.94
68456;BME280;55437;55.046;38.838;2023-06-26T03:06:27;99817.81;;;24.34;43.89
68456;BME280;55437;55.046;38.838;2023-06-26T03:08:53;99816.97;;;24.82;42.74
68456;BME280;55437;55.046;38.838;2023-06-26T03:11:19;99826.25;;;24.96;42.29
68456;BME280;55437;55.046;38.838;2023-06-26T03:13:45;99826.53;;;24.93;41.92
68456;BME280;55437;55.046;38.838;2023-06-26T03:16:11;99825.56;;;24.74;42.28
68456;BME280;55437;55.046;38.838;2023-06-26T03:18:37;99823.22;;;24.62;41.89
68456;BME280;55437;55.046;38.838;2023-06-26T03:21:03;99816.94;;;25.01;41.44
68456;BME280;55437;55.046;38.838;2023-06-26T03:23:30;99818.59;;;25.49;40.73
68456;BME280;55437;55.046;38.838;2023-06-26T03:25:55;99815.47;;;25.82;39.86
68456;BME280;55437;55.046;38.838;2023-06-26T03:28:27;99813.38;;;26.04;39.37
68456;BME280;55437;55.046;38.838;2023-06-26T03:30:53;99825.22;;;26.71;38.10
68456;BME280;55437;55.046;38.838;2023-06-26T03:33:19;99817.94;;;27.34;36.87
68456;BME280;55437;55.046;38.838;2023-06-26T03:35:46;99817.53;;;27.81;35.98
68456;BME280;55437;55.046;38.838;2023-06-26T03:38:13;99823.94;;;27.18;36.66
68456;BME280;55437;55.046;38.838;2023-06-26T03:40:41;99820.09;;;26.87;36.92
68456;BME280;55437;55.046;38.838;2023-06-26T03:43:07;99827.00;;;26.44;37.72
68456;BME280;55437;55.046;38.838;2023-06-26T03:45:43;99820.63;;;26.73;37.37
68456;BME280;55437;55.046;38.838;2023-06-26T03:48:09;99823.97;;;26.93;37.28
68456;BME280;55437;55.046;38.838;2023-06-26T03:50:36;99811.69;;;26.48;38.06
68456;BME280;55437;55.046;38.838;2023-06-26T03:53:02;99813.13;;;25.42;39.51
68456;BME280;55437;55.046;38.838;2023-06-26T03:55:28;99824.13;;;25.19;40.14
68456;BME280;55437;55.046;38.838;2023-06-26T03:57:54;99820.56;;;24.81;40.50
68456;BME280;55437;55.046;38.838;2023-06-26T04:00:20;99818.38;;;24.57;40.70
68456;BME280;55437;55.046;38.838;2023-06-26T04:02:46;99820.44;;;24.34;41.33
68456;BME280;55437;55.046;38.838;2023-06-26T04:05:12;99818.53;;;23.96;42.00
68456;BME280;55437;55.046;38.838;2023-06-26T04:07:38;99819.13;;;24.10;41.88
68456;BME280;55437;55.046;38.838;2023-06-26T04:10:06;99814.22;;;24.26;41.76
68456;BME280;55437;55.046;38.838;2023-06-26T04:12:33;99816.44;;;24.50;41.62
68456;BME280;55437;55.046;38.838;2023-06-26T04:14:59;99820.53;;;25.20;40.59
68456;BME280;55437;55.046;38.838;2023-06-26T04:17:24;99818.41;;;25.60;40.08
68456;BME280;55437;55.046;38.838;2023-06-26T04:19:51;99820.50;;;25.94;39.52
68456;BME280;55437;55.046;38.838;2023-06-26T04:22:16;99825.03;;;26.01;39.30
68456;BME280;55437;55.046;38.838;2023-06-26T04:24:42;99822.75;;;25.89;39.34
68456;BME280;55437;55.046;38.838;2023-06-26T04:27:13;99814.84;;;26.16;39.30
68456;BME280;55437;55.046;38.838;2023-06-26T04:29:42;99819.25;;;26.15;39.33
68456;BME280;55437;55.046;38.838;2023-06-26T04:32:08;99823.44;;;26.53;38.75
68456;BME280;55437;55.046;38.838;2023-06-26T04:34:33;99807.72;;;26.62;38.38
68456;BME280;55437;55.046;38.838;2023-06-26T04:37:02;99811.69;;;26.66;38.06
68456;BME280;55437;55.046;38.838;2023-06-26T04:39:30;99816.72;;;26.59;38.52
68456;BME280;55437;55.046;38.838;2023-06-26T04:41:56;99810.63;;;26.76;38.26
68456;BME280;55437;55.046;38.838;2023-06-26T04:44:21;99814.00;;;26.69;38.20
68456;BME280;55437;55.046;38.838;2023-06-26T04:46:48;99816.03;;;27.18;37.66
68456;BME280;55437;55.046;38.838;2023-06-26T04:49:17;99814.44;;;27.00;37.23
68456;BME280;55437;55.046;38.838;2023-06-26T04:51:43;99816.97;;;27.09;36.95
68456;BME280;55437;55.046;38.838;2023-06-26T04:54:10;99810.16;;;27.24;36.87
68456;BME280;55437;55.046;38.838;2023-06-26T04:56:37;99819.44;;;27.37;36.79
68456;BME280;55437;55.046;38.838;2023-06-26T04:59:05;99813.50;;;27.60;36.85
68456;BME280;55437;55.046;38.838;2023-06-26T05:01:31;99801.38;;;27.92;36.20
68456;BME280;55437;55.046;38.838;2023-06-26T05:04:00;99802.09;;;28.10;35.53
68456;BME280;55437;55.046;38.838;2023-06-26T05:06:26;99798.19;;;28.39;35.14
68456;BME280;55437;55.046;38.838;2023-06-26T05:08:58;99797.00;;;28.17;35.39
68456;BME280;55437;55.046;38.838;2023-06-26T05:11:25;99800.34;;;28.19;35.02
68456;BME280;55437;55.046;38.838;2023-06-26T05:13:51;99801.19;;;28.44;34.70
68456;BME280;55437;55.046;38.838;2023-06-26T05:16:17;99807.44;;;28.51;34.47
68456;BME280;55437;55.046;38.838;2023-06-26T05:18:43;99804.47;;;28.54;34.29
68456;BME280;55437;55.046;38.838;2023-06-26T05:21:09;99797.41;;;28.95;33.57
68456;BME280;55437;55.046;38.838;2023-06-26T05:23:35;99801.47;;;29.22;33.85
68456;BME280;55437;55.046;38.838;2023-06-26T05:26:02;99811.19;;;29.37;33.60
68456;BME280;55437;55.046;38.838;2023-06-26T05:28:47;99794.75;;;28.87;33.99
68456;BME280;55437;55.046;38.838;2023-06-26T05:31:17;99795.56;;;28.87;33.99
68456;BME280;55437;55.046;38.838;2023-06-26T05:34:03;99793.59;;;28.57;34.13
68456;BME280;55437;55.046;38.838;2023-06-26T05:36:31;99792.44;;;28.51;34.23
68456;BME280;55437;55.046;38.838;2023-06-26T05:39:00;99793.09;;;28.45;34.31
68456;BME280;55437;55.046;38.838;2023-06-26T05:41:26;99784.00;;;28.31;34.23
68456;BME280;55437;55.046;38.838;2023-06-26T05:43:52;99784.69;;;28.58;33.84
68456;BME280;55437;55.046;38.838;2023-06-26T05:46:20;99784.50;;;28.76;33.58
68456;BME280;55437;55.046;38.838;2023-06-26T05:48:46;99788.50;;;29.51;32.79
68456;BME280;55437;55.046;38.838;2023-06-26T05:51:13;99787.69;;;30.13;32.22
68456;BME280;55437;55.046;38.838;2023-06-26T05:53:39;99792.13;;;30.66;31.20
68456;BME280;55437;55.046;38.838;2023-06-26T05:56:05;99793.41;;;30.47;30.64
68456;BME280;55437;55.046;38.838;2023-06-26T05:58:32;99795.84;;;30.57;30.36
68456;BME280;55437;55.046;38.838;2023-06-26T06:00:58;99790.09;;;29.99;31.00
68456;BME280;55437;55.046;38.838;2023-06-26T06:03:42;99798.09;;;30.83;30.18
68456;BME280;55437;55.046;38.838;2023-06-26T06:06:27;99793.34;;;31.16;30.33
68456;BME280;55437;55.046;38.838;2023-06-26T06:11:37;99804.09;;;31.88;29.60
68456;BME280;55437;55.046;38.838;2023-06-26T06:14:21;99796.16;;;31.73;29.51
68456;BME280;55437;55.046;38.838;2023-06-26T06:16:47;99799.38;;;31.39;29.93
68456;BME280;55437;55.046;38.838;2023-06-26T06:19:13;99793.19;;;31.82;29.35
68456;BME280;55437;55.046;38.838;2023-06-26T06:21:39;99793.53;;;31.94;28.82
68456;BME280;55437;55.046;38.838;2023-06-26T06:24:05;99792.03;;;32.06;28.69
68456;BME280;55437;55.046;38.838;2023-06-26T06:27:09;99784.22;;;32.19;28.74
68456;BME280;55437;55.046;38.838;2023-06-26T06:29:35;99793.16;;;32.33;28.67
68456;BME280;55437;55.046;38.838;2023-06-26T06:32:00;99797.41;;;32.77;27.77
68456;BME280;55437;55.046;38.838;2023-06-26T06:34:26;99798.81;;;32.73;27.56
68456;BME280;55437;55.046;38.838;2023-06-26T06:39:36;99789.63;;;33.03;26.88
68456;BME280;55437;55.046;38.838;2023-06-26T06:42:02;99780.28;;;32.86;27.32
68456;BME280;55437;55.046;38.838;2023-06-26T06:44:29;99784.03;;;32.42;27.03
68456;BME280;55437;55.046;38.838;2023-06-26T06:46:56;99780.41;;;32.29;27.11
68456;BME280;55437;55.046;38.838;2023-06-26T06:49:22;99782.13;;;31.79;27.50
68456;BME280;55437;55.046;38.838;2023-06-26T06:51:47;99775.56;;;31.75;27.68
68456;BME280;55437;55.046;38.838;2023-06-26T06:54:15;99785.41;;;31.81;27.79
68456;BME280;55437;55.046;38.838;2023-06-26T06:56:41;99775.75;;;32.16;27.27
68456;BME280;55437;55.046;38.838;2023-06-26T06:59:07;99775.19;;;32.63;26.70
68456;BME280;55437;55.046;38.838;2023-06-26T07:01:33;99768.22;;;32.83;26.34
68456;BME280;55437;55.046;38.838;2023-06-26T07:03:59;99775.78;;;33.21;26.03
68456;BME280;55437;55.046;38.838;2023-06-26T07:06:25;99774.03;;;33.28;24.80
68456;BME280;55437;55.046;38.838;2023-06-26T07:08:56;99776.72;;;32.51;25.58
68456;BME280;55437;55.046;38.838;2023-06-26T07:11:41;99775.19;;;32.63;25.44
68456;BME280;55437;55.046;38.838;2023-06-26T07:17:10;99769.56;;;32.51;26.49
68456;BME280;55437;55.046;38.838;2023-06-26T07:19:37;99781.38;;;32.42;25.49
68456;BME280;55437;55.046;38.838;2023-06-26T07:27:37;99759.66;;;32.39;24.35
68456;BME280;55437;55.046;38.838;2023-06-26T07:30:04;99763.28;;;32.80;24.35
68456;BME280;55437;55.046;38.838;2023-06-26T07:32:31;99753.75;;;32.92;23.65
68456;BME280;55437;55.046;38.838;2023-06-26T07:34:57;99748.81;;;33.24;23.48
68456;BME280;55437;55.046;38.838;2023-06-26T07:37:23;99755.50;;;33.13;24.05
68456;BME280;55437;55.046;38.838;2023-06-26T07:39:49;99761.13;;;32.69;24.00
68456;BME280;55437;55.046;38.838;2023-06-26T07:42:16;99748.66;;;32.20;24.51
68456;BME280;55437;55.046;38.838;2023-06-26T07:45:20;99743.34;;;31.99;24.75
68456;BME280;55437;55.046;38.838;2023-06-26T07:47:46;99741.53;;;31.85;24.82
68456;BME280;55437;55.046;38.838;2023-06-26T07:50:30;99739.06;;;31.83;24.15
68456;BME280;55437;55.046;38.838;2023-06-26T07:53:14;99740.31;;;31.66;24.51
68456;BME280;55437;55.046;38.838;2023-06-26T07:58:24;99739.25;;;31.02;24.70
68456;BME280;55437;55.046;38.838;2023-06-26T08:03:38;99739.13;;;30.43;25.25
68456;BME280;55437;55.046;38.838;2023-06-26T08:06:22;99740.69;;;29.84;25.34
68456;BME280;55437;55.046;38.838;2023-06-26T08:08:48;99733.50;;;29.38;26.05
68456;BME280;55437;55.046;38.838;2023-06-26T08:11:33;99735.63;;;29.74;25.77
68456;BME280;55437;55.046;38.838;2023-06-26T08:13:59;99729.56;;;29.88;25.58
68456;BME280;55437;55.046;38.838;2023-06-26T08:16:25;99731.31;;;29.73;24.98
68456;BME280;55437;55.046;38.838;2023-06-26T08:21:54;99726.47;;;29.54;25.59
68456;BME280;55437;55.046;38.838;2023-06-26T08:24:38;99729.09;;;29.85;26.08
68456;BME280;55437;55.046;38.838;2023-06-26T08:27:04;99721.72;;;30.26;26.33
68456;BME280;55437;55.046;38.838;2023-06-26T08:29:31;99720.22;;;30.46;25.77
68456;BME280;55437;55.046;38.838;2023-06-26T08:31:57;99727.84;;;29.42;26.10
68456;BME280;55437;55.046;38.838;2023-06-26T08:34:41;99725.22;;;28.13;27.78
68456;BME280;55437;55.046;38.838;2023-06-26T08:37:07;99721.13;;;27.52;28.49
68456;BME280;55437;55.046;38.838;2023-06-26T08:39:35;99718.50;;;27.18;28.19
68456;BME280;55437;55.046;38.838;2023-06-26T08:42:01;99715.22;;;26.90;28.35
68456;BME280;55437;55.046;38.838;2023-06-26T08:44:27;99728.13;;;26.50;28.71
68456;BME280;55437;55.046;38.838;2023-06-26T08:46:53;99720.13;;;26.24;28.66
68456;BME280;55437;55.046;38.838;2023-06-26T08:49:29;99718.84;;;26.64;28.73
68456;BME280;55437;55.046;38.838;2023-06-26T08:52:10;99725.13;;;27.31;29.21
68456;BME280;55437;55.046;38.838;2023-06-26T08:54:44;99718.28;;;27.04;29.51
68456;BME280;55437;55.046;38.838;2023-06-26T08:57:12;99714.53;;;26.63;29.95
68456;BME280;55437;55.046;38.838;2023-06-26T08:59:58;99717.81;;;26.39;30.14
68456;BME280;55437;55.046;38.838;2023-06-26T09:08:31;99710.88;;;25.39;32.22
68456;BME280;55437;55.046;38.838;2023-06-26T09:10:57;99713.47;;;25.12;32.70
68456;BME280;55437;55.046;38.838;2023-06-26T09:13:23;99721.69;;;24.90;32.95
68456;BME280;55437;55.046;38.838;2023-06-26T09:15:53;99730.84;;;24.86;33.50
68456;BME280;55437;55.046;38.838;2023-06-26T09:18:20;99731.63;;;25.05;33.52
68456;BME280;55437;55.046;38.838;2023-06-26T09:20:48;99736.47;;;25.10;34.77
68456;BME280;55437;55.046;38.838;2023-06-26T09:23:14;99744.13;;;24.94;35.65
68456;BME280;55437;55.046;38.838;2023-06-26T09:25:40;99732.97;;;24.53;37.53
68456;BME280;55437;55.046;38.838;2023-06-26T09:28:08;99721.13;;;24.30;38.21
68456;BME280;55437;55.046;38.838;2023-06-26T09:30:35;99724.56;;;24.30;38.45
68456;BME280;55437;55.046;38.838;2023-06-26T09:33:18;99726.53;;;24.38;38.61
68456;BME280;55437;55.046;38.838;2023-06-26T09:35:45;99714.75;;;24.32;39.15
68456;BME280;55437;55.046;38.838;2023-06-26T09:38:31;99717.78;;;24.47;39.47
68456;BME280;55437;55.046;38.838;2023-06-26T09:40:57;99721.63;;;24.53;39.97
68456;BME280;55437;55.046;38.838;2023-06-26T09:43:23;99708.91;;;24.67;39.44
68456;BME280;55437;55.046;38.838;2023-06-26T09:46:07;99700.84;;;24.78;39.39
68456;BME280;55437;55.046;38.838;2023-06-26T09:48:33;99702.59;;;25.07;39.14
68456;BME280;55437;55.046;38.838;2023-06-26T09:51:00;99703.13;;;25.38;38.73
68456;BME280;55437;55.046;38.838;2023-06-26T09:53:27;99697.13;;;25.73;38.50
68456;BME280;55437;55.046;38.838;2023-06-26T09:55:52;99697.84;;;25.93;37.91
68456;BME280;55437;55.046;38.838;2023-06-26T09:58:18;99690.25;;;26.07;37.41
68456;BME280;55437;55.046;38.838;2023-06-26T10:00:44;99692.94;;;26.15;37.50
68456;BME280;55437;55.046;38.838;2023-06-26T10:03:29;99689.47;;;26.33;36.70
68456;BME280;55437;55.046;38.838;2023-06-26T10:05:55;99684.31;;;26.49;36.29
68456;BME280;55437;55.046;38.838;2023-06-26T10:08:21;99688.03;;;26.38;36.28
68456;BME280;55437;55.046;38.838;2023-06-26T10:10:48;99683.59;;;26.39;35.75
68456;BME280;55437;55.046;38.838;2023-06-26T10:13:37;99677.94;;;26.51;36.17
68456;BME280;55437;55.046;38.838;2023-06-26T10:16:06;99680.00;;;26.66;35.59
68456;BME280;55437;55.046;38.838;2023-06-26T10:18:32;99687.16;;;26.81;35.22
68456;BME280;55437;55.046;38.838;2023-06-26T10:21:01;99682.31;;;26.95;34.80
68456;BME280;55437;55.046;38.838;2023-06-26T10:23:30;99685.03;;;27.11;34.34
68456;BME280;55437;55.046;38.838;2023-06-26T10:25:59;99682.25;;;27.20;33.98
68456;BME280;55437;55.046;38.838;2023-06-26T10:28:28;99677.72;;;27.39;33.93
68456;BME280;55437;55.046;38.838;2023-06-26T10:30:57;99673.53;;;27.62;33.37
68456;BME280;55437;55.046;38.838;2023-06-26T10:33:23;99678.13;;;27.68;33.46
68456;BME280;55437;55.046;38.838;2023-06-26T10:35:50;99665.31;;;27.73;33.09
68456;BME280;55437;55.046;38.838;2023-06-26T10:38:17;99656.88;;;27.70;33.29
68456;BME280;55437;55.046;38.838;2023-06-26T10:40:45;99655.06;;;27.70;33.61
68456;BME280;55437;55.046;38.838;2023-06-26T10:43:15;99654.06;;;27.71;32.71
68456;BME280;55437;55.046;38.838;2023-06-26T10:46:02;99655.53;;;27.57;32.94
68456;BME280;55437;55.046;38.838;2023-06-26T10:49:00;99652.03;;;27.41;32.75
68456;BME280;55437;55.046;38.838;2023-06-26T10:51:27;99654.75;;;27.15;32.78
68456;BME280;55437;55.046;38.838;2023-06-26T10:53:55;99647.81;;;26.80;32.92
68456;BME280;55437;55.046;38.838;2023-06-26T11:01:42;99628.28;;;26.31;33.00
68456;BME280;55437;55.046;38.838;2023-06-26T11:04:08;99626.28;;;26.33;32.96
68456;BME280;55437;55.046;38.838;2023-06-26T11:06:37;99626.34;;;26.23;32.41
68456;BME280;55437;55.046;38.838;2023-06-26T11:09:15;99629.38;;;26.10;31.70
68456;BME280;55437;55.046;38.838;2023-06-26T11:14:25;99628.13;;;25.97;30.47
68456;BME280;55437;55.046;38.838;2023-06-26T11:16:55;99614.31;;;25.77;30.95
68456;BME280;55437;55.046;38.838;2023-06-26T11:19:21;99608.28;;;25.84;30.77
68456;BME280;55437;55.046;38.838;2023-06-26T11:21:47;99608.78;;;25.80;30.27
68456;BME280;55437;55.046;38.838;2023-06-26T11:24:32;99616.44;;;25.91;29.77
68456;BME280;55437;55.046;38.838;2023-06-26T11:27:02;99605.22;;;25.89;29.78
68456;BME280;55437;55.046;38.838;2023-06-26T11:29:29;99612.53;;;25.77;30.13
68456;BME280;55437;55.046;38.838;2023-06-26T11:32:03;99614.41;;;25.67;29.83
68456;BME280;55437;55.046;38.838;2023-06-26T11:34:32;99609.19;;;25.58;30.07
68456;BME280;55437;55.046;38.838;2023-06-26T11:36:58;99600.16;;;25.60;30.12
68456;BME280;55437;55.046;38.838;2023-06-26T11:39:26;99607.00;;;25.53;30.31
68456;BME280;55437;55.046;38.838;2023-06-26T11:44:55;99603.84;;;25.49;30.64
68456;BME280;55437;55.046;38.838;2023-06-26T11:47:21;99598.66;;;25.40;30.61
68456;BME280;55437;55.046;38.838;2023-06-26T11:49:49;99595.44;;;25.28;30.11
68456;BME280;55437;55.046;38.838;2023-06-26T11:52:16;99601.72;;;25.18;29.80
68456;BME280;55437;55.046;38.838;2023-06-26T11:54:42;99604.34;;;25.18;30.01
68456;BME280;55437;55.046;38.838;2023-06-26T11:57:13;99594.38;;;25.21;29.94
68456;BME280;55437;55.046;38.838;2023-06-26T11:59:40;99592.03;;;25.36;30.08
68456;BME280;55437;55.046;38.838;2023-06-26T12:02:08;99586.78;;;25.36;29.75
68456;BME280;55437;55.046;38.838;2023-06-26T12:04:53;99584.00;;;25.37;30.16
68456;BME280;55437;55.046;38.838;2023-06-26T12:07:19;99597.19;;;25.55;30.31
68456;BME280;55437;55.046;38.838;2023-06-26T12:09:47;99592.69;;;25.65;30.46
68456;BME280;55437;55.046;38.838;2023-06-26T12:12:14;99592.75;;;25.73;31.62
68456;BME280;55437;55.046;38.838;2023-06-26T12:14:42;99589.00;;;25.76;31.03
68456;BME280;55437;55.046;38.838;2023-06-26T12:17:11;99580.00;;;25.78;30.65
68456;BME280;55437;55.046;38.838;2023-06-26T12:19:56;99581.50;;;25.63;30.35
68456;BME280;55437;55.046;38.838;2023-06-26T12:22:22;99566.25;;;25.67;30.28
68456;BME280;55437;55.046;38.838;2023-06-26T12:24:48;99568.25;;;25.55;30.57
68456;BME280;55437;55.046;38.838;2023-06-26T12:27:15;99576.00;;;25.57;30.14
68456;BME280;55437;55.046;38.838;2023-06-26T12:29:50;99567.66;;;25.61;30.10
68456;BME280;55437;55.046;38.838;2023-06-26T12:32:16;99572.16;;;25.51;29.57
68456;BME280;55437;55.046;38.838;2023-06-26T12:34:47;99574.88;;;25.41;29.48
68456;BME280;55437;55.046;38.838;2023-06-26T12:37:14;99577.34;;;25.43;29.38
68456;BME280;55437;55.046;38.838;2023-06-26T12:39:52;99567.19;;;25.48;29.54
68456;BME280;55437;55.046;38.838;2023-06-26T12:42:21;99567.66;;;25.61;29.44
68456;BME280;55437;55.046;38.838;2023-06-26T12:44:47;99564.19;;;25.96;29.56
68456;BME280;55437;55.046;38.838;2023-06-26T12:47:18;99565.72;;;26.33;29.35
68456;BME280;55437;55.046;38.838;2023-06-26T12:49:45;99560.09;;;26.53;28.77
68456;BME280;55437;55.046;38.838;2023-06-26T12:52:15;99559.00;;;26.64;28.25
68456;BME280;55437;55.046;38.838;2023-06-26T12:54:59;99567.41;;;26.68;27.29
68456;BME280;55437;55.046;38.838;2023-06-26T12:57:25;99550.06;;;26.57;27.89
68456;BME280;55437;55.046;38.838;2023-06-26T12:59:52;99566.34;;;26.52;27.88
68456;BME280;55437;55.046;38.838;2023-06-26T13:05:02;99559.28;;;26.27;28.65
68456;BME280;55437;55.046;38.838;2023-06-26T13:07:29;99553.44;;;26.15;28.96
68456;BME280;55437;55.046;38.838;2023-06-26T13:09:55;99557.59;;;26.18;29.30
68456;BME280;55437;55.046;38.838;2023-06-26T13:12:21;99556.34;;;26.04;29.46
68456;BME280;55437;55.046;38.838;2023-06-26T13:14:47;99557.00;;;26.06;29.89
68456;BME280;55437;55.046;38.838;2023-06-26T13:17:13;99549.28;;;26.05;29.82
68456;BME280;55437;55.046;38.838;2023-06-26T13:19:39;99544.94;;;25.96;29.38
68456;BME280;55437;55.046;38.838;2023-06-26T13:22:05;99542.50;;;26.02;29.43
68456;BME280;55437;55.046;38.838;2023-06-26T13:24:31;99539.34;;;25.99;29.44
68456;BME280;55437;55.046;38.838;2023-06-26T13:26:57;99539.16;;;25.92;29.50
68456;BME280;55437;55.046;38.838;2023-06-26T13:29:22;99541.94;;;25.91;29.37
68456;BME280;55437;55.046;38.838;2023-06-26T13:31:48;99544.31;;;26.02;29.39
68456;BME280;55437;55.046;38.838;2023-06-26T13:34:21;99546.72;;;26.21;29.54
68456;BME280;55437;55.046;38.838;2023-06-26T13:36:48;99552.63;;;26.15;28.75
68456;BME280;55437;55.046;38.838;2023-06-26T13:39:14;99543.78;;;25.98;28.89
68456;BME280;55437;55.046;38.838;2023-06-26T13:41:40;99545.91;;;25.95;29.60
68456;BME280;55437;55.046;38.838;2023-06-26T13:44:24;99556.09;;;25.54;31.35
68456;BME280;55437;55.046;38.838;2023-06-26T13:46:51;99594.47;;;25.02;34.16
68456;BME280;55437;55.046;38.838;2023-06-26T13:49:18;99570.16;;;24.35;35.52